sensor_id;sensor_type;location;lat;lon;timestamp;P1;durP1;ratioP1;P2;durP2;ratioP2
7903;SDS011;3997;48.416;8.512;2023-02-17T00:00:03;87.68;;;84.03;;
7903;SDS011;3997;48.416;8.512;2023-02-17T00:02:30;116.63;;;111.80;;
7903;SDS011;3997;48.416;8.512;2023-02-17T00:04:56;35.17;;;33.55;;
7903;SDS011;3997;48.416;8.512;2023-02-17T00:07:23;138.63;;;133.07;;
7903;SDS011;3997;48.416;8.512;2023-02-17T00:09:49;71.63;;;68.60;;
7903;SDS011;3997;48.416;8.512;2023-02-17T00:12:15;51.85;;;49.38;;
7903;SDS011;3997;48.416;8.512;2023-02-17T00:14:42;141.18;;;135.68;;
7903;SDS011;3997;48.416;8.512;2023-02-17T00:17:10;73.18;;;70.20;;
7903;SDS011;3997;48.416;8.512;2023-02-17T00:19:36;108.00;;;103.75;;
7903;SDS011;3997;48.416;8.512;2023-02-17T00:22:02;122.20;;;117.30;;
7903;SDS011;3997;48.416;8.512;2023-02-17T00:24:30;132.90;;;127.40;;
7903;SDS011;3997;48.416;8.512;2023-02-17T00:26:57;172.82;;;165.35;;
7903;SDS011;3997;48.416;8.512;2023-02-17T00:29:23;101.15;;;96.72;;
7903;SDS011;3997;48.416;8.512;2023-02-17T00:31:51;46.35;;;44.17;;
7903;SDS011;3997;48.416;8.512;2023-02-17T00:34:19;57.58;;;55.10;;
7903;SDS011;3997;48.416;8.512;2023-02-17T00:36:45;40.03;;;38.20;;
7903;SDS011;3997;48.416;8.512;2023-02-17T00:39:12;82.28;;;78.72;;
7903;SDS011;3997;48.416;8.512;2023-02-17T00:41:39;37.22;;;35.42;;
7903;SDS011;3997;48.416;8.512;2023-02-17T00:44:06;82.10;;;78.32;;
7903;SDS011;3997;48.416;8.512;2023-02-17T00:46:32;48.65;;;46.55;;
7903;SDS011;3997;48.416;8.512;2023-02-17T00:48:59;122.65;;;117.72;;
7903;SDS011;3997;48.416;8.512;2023-02-17T00:51:27;96.32;;;92.32;;
7903;SDS011;3997;48.416;8.512;2023-02-17T00:53:53;118.35;;;113.72;;
7903;SDS011;3997;48.416;8.512;2023-02-17T00:56:19;64.75;;;61.83;;
7903;SDS011;3997;48.416;8.512;2023-02-17T00:58:46;33.00;;;31.38;;
7903;SDS011;3997;48.416;8.512;2023-02-17T01:01:12;98.07;;;93.68;;
7903;SDS011;3997;48.416;8.512;2023-02-17T01:03:39;146.75;;;140.38;;
7903;SDS011;3997;48.416;8.512;2023-02-17T01:06:06;11.05;;;10.25;;
7903;SDS011;3997;48.416;8.512;2023-02-17T01:08:35;19.98;;;18.88;;
7903;SDS011;3997;48.416;8.512;2023-02-17T01:11:01;57.67;;;54.97;;
7903;SDS011;3997;48.416;8.512;2023-02-17T01:13:28;55.28;;;52.83;;
7903;SDS011;3997;48.416;8.512;2023-02-17T01:15:54;41.63;;;39.78;;
7903;SDS011;3997;48.416;8.512;2023-02-17T01:18:21;285.27;;;272.60;;
7903;SDS011;3997;48.416;8.512;2023-02-17T01:20:48;156.63;;;149.75;;
7903;SDS011;3997;48.416;8.512;2023-02-17T01:23:14;79.03;;;75.32;;
7903;SDS011;3997;48.416;8.512;2023-02-17T01:25:43;59.22;;;56.42;;
7903;SDS011;3997;48.416;8.512;2023-02-17T01:28:10;106.97;;;102.57;;
7903;SDS011;3997;48.416;8.512;2023-02-17T01:30:39;147.05;;;141.43;;
7903;SDS011;3997;48.416;8.512;2023-02-17T01:33:05;371.00;;;354.05;;
7903;SDS011;3997;48.416;8.512;2023-02-17T01:35:32;131.32;;;126.00;;
7903;SDS011;3997;48.416;8.512;2023-02-17T01:37:59;108.30;;;103.78;;
7903;SDS011;3997;48.416;8.512;2023-02-17T01:40:25;222.85;;;213.07;;
7903;SDS011;3997;48.416;8.512;2023-02-17T01:42:53;54.70;;;52.40;;
7903;SDS011;3997;48.416;8.512;2023-02-17T01:45:36;130.48;;;125.00;;
7903;SDS011;3997;48.416;8.512;2023-02-17T01:48:05;206.48;;;197.88;;
7903;SDS011;3997;48.416;8.512;2023-02-17T01:50:33;114.63;;;109.82;;
7903;SDS011;3997;48.416;8.512;2023-02-17T01:53:00;51.13;;;48.78;;
7903;SDS011;3997;48.416;8.512;2023-02-17T01:55:27;48.60;;;46.33;;
7903;SDS011;3997;48.416;8.512;2023-02-17T01:57:55;160.35;;;152.90;;
7903;SDS011;3997;48.416;8.512;2023-02-17T02:00:24;62.33;;;59.83;;
7903;SDS011;3997;48.416;8.512;2023-02-17T02:02:51;108.43;;;103.45;;
7903;SDS011;3997;48.416;8.512;2023-02-17T02:05:18;136.00;;;130.13;;
7903;SDS011;3997;48.416;8.512;2023-02-17T02:07:45;120.70;;;115.10;;
7903;SDS011;3997;48.416;8.512;2023-02-17T02:10:13;125.72;;;120.45;;
7903;SDS011;3997;48.416;8.512;2023-02-17T02:12:40;120.88;;;115.55;;
7903;SDS011;3997;48.416;8.512;2023-02-17T02:15:09;166.48;;;159.40;;
7903;SDS011;3997;48.416;8.512;2023-02-17T02:17:38;95.10;;;90.65;;
7903;SDS011;3997;48.416;8.512;2023-02-17T02:23:05;14.85;;;13.93;;
7903;SDS011;3997;48.416;8.512;2023-02-17T02:25:46;185.82;;;177.77;;
7903;SDS011;3997;48.416;8.512;2023-02-17T02:28:20;150.23;;;143.32;;
7903;SDS011;3997;48.416;8.512;2023-02-17T02:30:54;167.93;;;160.70;;
7903;SDS011;3997;48.416;8.512;2023-02-17T02:33:26;154.73;;;147.63;;
7903;SDS011;3997;48.416;8.512;2023-02-17T02:35:56;250.23;;;239.73;;
7903;SDS011;3997;48.416;8.512;2023-02-17T02:38:25;57.88;;;55.15;;
7903;SDS011;3997;48.416;8.512;2023-02-17T02:40:53;91.47;;;86.40;;
7903;SDS011;3997;48.416;8.512;2023-02-17T02:43:22;132.68;;;127.05;;
7903;SDS011;3997;48.416;8.512;2023-02-17T02:45:49;98.38;;;94.10;;
7903;SDS011;3997;48.416;8.512;2023-02-17T02:48:15;95.68;;;91.43;;
7903;SDS011;3997;48.416;8.512;2023-02-17T02:50:47;38.10;;;36.25;;
7903;SDS011;3997;48.416;8.512;2023-02-17T02:53:22;250.98;;;240.27;;
7903;SDS011;3997;48.416;8.512;2023-02-17T02:55:57;109.32;;;104.65;;
7903;SDS011;3997;48.416;8.512;2023-02-17T02:58:26;91.07;;;87.30;;
7903;SDS011;3997;48.416;8.512;2023-02-17T03:00:56;160.02;;;151.50;;
7903;SDS011;3997;48.416;8.512;2023-02-17T03:03:27;207.63;;;198.95;;
7903;SDS011;3997;48.416;8.512;2023-02-17T03:05:56;192.52;;;184.32;;
7903;SDS011;3997;48.416;8.512;2023-02-17T03:08:25;112.63;;;107.88;;
7903;SDS011;3997;48.416;8.512;2023-02-17T03:10:53;126.38;;;119.35;;
7903;SDS011;3997;48.416;8.512;2023-02-17T03:13:20;202.38;;;193.57;;
7903;SDS011;3997;48.416;8.512;2023-02-17T03:15:46;202.25;;;194.07;;
7903;SDS011;3997;48.416;8.512;2023-02-17T03:18:13;52.00;;;49.72;;
7903;SDS011;3997;48.416;8.512;2023-02-17T03:20:43;236.48;;;225.98;;
7903;SDS011;3997;48.416;8.512;2023-02-17T03:23:12;310.08;;;296.70;;
7903;SDS011;3997;48.416;8.512;2023-02-17T03:25:38;244.20;;;233.27;;
7903;SDS011;3997;48.416;8.512;2023-02-17T03:28:04;215.43;;;206.50;;
7903;SDS011;3997;48.416;8.512;2023-02-17T03:30:31;83.80;;;79.28;;
7903;SDS011;3997;48.416;8.512;2023-02-17T03:32:57;253.30;;;242.98;;
7903;SDS011;3997;48.416;8.512;2023-02-17T03:35:24;259.88;;;248.50;;
7903;SDS011;3997;48.416;8.512;2023-02-17T03:37:50;328.20;;;314.45;;
7903;SDS011;3997;48.416;8.512;2023-02-17T03:40:18;457.92;;;437.60;;
7903;SDS011;3997;48.416;8.512;2023-02-17T03:42:45;161.45;;;154.65;;
7903;SDS011;3997;48.416;8.512;2023-02-17T03:45:11;190.18;;;181.75;;
7903;SDS011;3997;48.416;8.512;2023-02-17T03:47:38;105.72;;;100.85;;
7903;SDS011;3997;48.416;8.512;2023-02-17T03:50:05;90.60;;;86.95;;
7903;SDS011;3997;48.416;8.512;2023-02-17T03:52:31;286.60;;;274.13;;
7903;SDS011;3997;48.416;8.512;2023-02-17T03:54:58;293.52;;;280.80;;
7903;SDS011;3997;48.416;8.512;2023-02-17T03:57:25;227.82;;;218.02;;
7903;SDS011;3997;48.416;8.512;2023-02-17T03:59:52;313.20;;;299.75;;
7903;SDS011;3997;48.416;8.512;2023-02-17T04:02:18;252.70;;;241.30;;
7903;SDS011;3997;48.416;8.512;2023-02-17T04:04:45;256.65;;;245.70;;
7903;SDS011;3997;48.416;8.512;2023-02-17T04:07:11;244.02;;;232.93;;
7903;SDS011;3997;48.416;8.512;2023-02-17T04:09:38;335.92;;;321.75;;
7903;SDS011;3997;48.416;8.512;2023-02-17T04:12:04;153.98;;;147.43;;
7903;SDS011;3997;48.416;8.512;2023-02-17T04:14:32;143.15;;;137.45;;
7903;SDS011;3997;48.416;8.512;2023-02-17T04:16:59;198.60;;;189.75;;
7903;SDS011;3997;48.416;8.512;2023-02-17T04:19:25;325.45;;;311.33;;
7903;SDS011;3997;48.416;8.512;2023-02-17T04:21:51;168.88;;;161.65;;
7903;SDS011;3997;48.416;8.512;2023-02-17T04:24:18;296.08;;;282.90;;
7903;SDS011;3997;48.416;8.512;2023-02-17T04:26:44;263.77;;;252.73;;
7903;SDS011;3997;48.416;8.512;2023-02-17T04:29:11;424.48;;;405.98;;
7903;SDS011;3997;48.416;8.512;2023-02-17T04:31:39;248.95;;;238.25;;
7903;SDS011;3997;48.416;8.512;2023-02-17T04:34:05;236.30;;;226.38;;
7903;SDS011;3997;48.416;8.512;2023-02-17T04:36:31;129.65;;;123.70;;
7903;SDS011;3997;48.416;8.512;2023-02-17T04:38:58;379.65;;;361.88;;
7903;SDS011;3997;48.416;8.512;2023-02-17T04:41:24;266.40;;;253.93;;
7903;SDS011;3997;48.416;8.512;2023-02-17T04:43:51;144.75;;;138.43;;
7903;SDS011;3997;48.416;8.512;2023-02-17T04:46:17;190.23;;;181.88;;
7903;SDS011;3997;48.416;8.512;2023-02-17T04:48:45;384.75;;;367.17;;
7903;SDS011;3997;48.416;8.512;2023-02-17T04:51:11;240.73;;;230.60;;
7903;SDS011;3997;48.416;8.512;2023-02-17T04:53:38;147.75;;;141.27;;
7903;SDS011;3997;48.416;8.512;2023-02-17T04:56:05;212.45;;;202.48;;
7903;SDS011;3997;48.416;8.512;2023-02-17T04:58:31;150.52;;;144.48;;
7903;SDS011;3997;48.416;8.512;2023-02-17T05:00:58;175.05;;;166.90;;
7903;SDS011;3997;48.416;8.512;2023-02-17T05:03:25;289.63;;;277.90;;
7903;SDS011;3997;48.416;8.512;2023-02-17T05:05:53;250.50;;;239.18;;
7903;SDS011;3997;48.416;8.512;2023-02-17T05:08:19;457.13;;;434.60;;
7903;SDS011;3997;48.416;8.512;2023-02-17T05:10:46;212.00;;;201.00;;
7903;SDS011;3997;48.416;8.512;2023-02-17T05:13:12;342.20;;;326.70;;
7903;SDS011;3997;48.416;8.512;2023-02-17T05:15:39;111.10;;;106.43;;
7903;SDS011;3997;48.416;8.512;2023-02-17T05:18:05;167.25;;;158.98;;
7903;SDS011;3997;48.416;8.512;2023-02-17T05:20:31;226.82;;;217.02;;
7903;SDS011;3997;48.416;8.512;2023-02-17T05:22:59;173.52;;;166.15;;
7903;SDS011;3997;48.416;8.512;2023-02-17T05:25:26;161.10;;;153.90;;
7903;SDS011;3997;48.416;8.512;2023-02-17T05:27:52;335.10;;;319.27;;
7903;SDS011;3997;48.416;8.512;2023-02-17T05:30:19;157.82;;;150.52;;
7903;SDS011;3997;48.416;8.512;2023-02-17T05:32:45;183.43;;;175.27;;
7903;SDS011;3997;48.416;8.512;2023-02-17T05:35:11;135.43;;;128.70;;
7903;SDS011;3997;48.416;8.512;2023-02-17T05:37:38;319.98;;;303.83;;
7903;SDS011;3997;48.416;8.512;2023-02-17T05:40:06;399.75;;;378.73;;
7903;SDS011;3997;48.416;8.512;2023-02-17T05:42:33;170.55;;;162.93;;
7903;SDS011;3997;48.416;8.512;2023-02-17T05:44:59;464.33;;;436.83;;
7903;SDS011;3997;48.416;8.512;2023-02-17T05:47:26;464.65;;;440.33;;
7903;SDS011;3997;48.416;8.512;2023-02-17T05:49:53;266.10;;;253.07;;
7903;SDS011;3997;48.416;8.512;2023-02-17T05:52:19;261.70;;;248.63;;
7903;SDS011;3997;48.416;8.512;2023-02-17T05:54:45;240.45;;;228.15;;
7903;SDS011;3997;48.416;8.512;2023-02-17T05:57:13;242.98;;;229.88;;
7903;SDS011;3997;48.416;8.512;2023-02-17T05:59:40;167.27;;;158.68;;
7903;SDS011;3997;48.416;8.512;2023-02-17T06:02:06;350.98;;;319.33;;
7903;SDS011;3997;48.416;8.512;2023-02-17T06:04:33;414.25;;;391.70;;
7903;SDS011;3997;48.416;8.512;2023-02-17T06:06:59;226.40;;;212.23;;
7903;SDS011;3997;48.416;8.512;2023-02-17T06:09:26;224.57;;;214.15;;
7903;SDS011;3997;48.416;8.512;2023-02-17T06:11:52;354.42;;;331.27;;
7903;SDS011;3997;48.416;8.512;2023-02-17T06:14:20;181.95;;;172.20;;
7903;SDS011;3997;48.416;8.512;2023-02-17T06:16:46;461.98;;;435.55;;
7903;SDS011;3997;48.416;8.512;2023-02-17T06:19:13;167.07;;;157.73;;
7903;SDS011;3997;48.416;8.512;2023-02-17T06:21:39;268.48;;;253.57;;
7903;SDS011;3997;48.416;8.512;2023-02-17T06:24:06;371.95;;;353.25;;
7903;SDS011;3997;48.416;8.512;2023-02-17T06:26:32;169.43;;;161.80;;
7903;SDS011;3997;48.416;8.512;2023-02-17T06:28:59;274.38;;;259.00;;
7903;SDS011;3997;48.416;8.512;2023-02-17T06:31:27;340.23;;;324.58;;
7903;SDS011;3997;48.416;8.512;2023-02-17T06:33:54;309.63;;;295.95;;
7903;SDS011;3997;48.416;8.512;2023-02-17T06:36:20;290.77;;;273.00;;
7903;SDS011;3997;48.416;8.512;2023-02-17T06:38:46;260.77;;;249.52;;
7903;SDS011;3997;48.416;8.512;2023-02-17T06:41:15;261.83;;;242.32;;
7903;SDS011;3997;48.416;8.512;2023-02-17T06:43:41;255.90;;;243.65;;
7903;SDS011;3997;48.416;8.512;2023-02-17T06:46:08;388.38;;;369.83;;
7903;SDS011;3997;48.416;8.512;2023-02-17T06:48:36;250.50;;;239.07;;
7903;SDS011;3997;48.416;8.512;2023-02-17T06:51:02;243.38;;;232.30;;
7903;SDS011;3997;48.416;8.512;2023-02-17T06:53:29;400.50;;;381.83;;
7903;SDS011;3997;48.416;8.512;2023-02-17T06:55:55;252.25;;;240.93;;
7903;SDS011;3997;48.416;8.512;2023-02-17T06:58:22;428.30;;;405.13;;
7903;SDS011;3997;48.416;8.512;2023-02-17T07:00:48;435.17;;;413.40;;
7903;SDS011;3997;48.416;8.512;2023-02-17T07:03:15;479.35;;;449.67;;
7903;SDS011;3997;48.416;8.512;2023-02-17T07:05:42;251.15;;;239.82;;
7903;SDS011;3997;48.416;8.512;2023-02-17T07:08:09;425.13;;;405.35;;
7903;SDS011;3997;48.416;8.512;2023-02-17T07:10:35;127.13;;;121.72;;
7903;SDS011;3997;48.416;8.512;2023-02-17T07:13:02;122.20;;;116.43;;
7903;SDS011;3997;48.416;8.512;2023-02-17T07:15:29;360.05;;;343.73;;
7903;SDS011;3997;48.416;8.512;2023-02-17T07:17:55;302.30;;;285.63;;
7903;SDS011;3997;48.416;8.512;2023-02-17T07:20:21;292.02;;;278.98;;
7903;SDS011;3997;48.416;8.512;2023-02-17T07:22:49;118.88;;;113.15;;
7903;SDS011;3997;48.416;8.512;2023-02-17T07:25:16;283.92;;;270.33;;
7903;SDS011;3997;48.416;8.512;2023-02-17T07:27:42;289.92;;;277.95;;
7903;SDS011;3997;48.416;8.512;2023-02-17T07:30:09;143.32;;;137.23;;
7903;SDS011;3997;48.416;8.512;2023-02-17T07:32:36;210.25;;;199.45;;
7903;SDS011;3997;48.416;8.512;2023-02-17T07:35:02;256.67;;;244.48;;
7903;SDS011;3997;48.416;8.512;2023-02-17T07:37:28;414.67;;;395.08;;
7903;SDS011;3997;48.416;8.512;2023-02-17T07:39:56;391.00;;;372.63;;
7903;SDS011;3997;48.416;8.512;2023-02-17T07:42:23;257.63;;;245.82;;
7903;SDS011;3997;48.416;8.512;2023-02-17T07:44:49;320.13;;;305.98;;
7903;SDS011;3997;48.416;8.512;2023-02-17T07:47:16;420.48;;;399.55;;
7903;SDS011;3997;48.416;8.512;2023-02-17T07:49:42;292.27;;;279.30;;
7903;SDS011;3997;48.416;8.512;2023-02-17T07:52:09;338.20;;;322.88;;
7903;SDS011;3997;48.416;8.512;2023-02-17T07:54:35;339.63;;;324.60;;
7903;SDS011;3997;48.416;8.512;2023-02-17T07:57:03;140.68;;;134.68;;
7903;SDS011;3997;48.416;8.512;2023-02-17T07:59:30;373.08;;;355.33;;
7903;SDS011;3997;48.416;8.512;2023-02-17T08:01:56;212.75;;;203.00;;
7903;SDS011;3997;48.416;8.512;2023-02-17T08:04:23;428.55;;;407.75;;
7903;SDS011;3997;48.416;8.512;2023-02-17T08:06:49;196.30;;;188.13;;
7903;SDS011;3997;48.416;8.512;2023-02-17T08:09:15;230.73;;;221.73;;
7903;SDS011;3997;48.416;8.512;2023-02-17T08:11:59;218.52;;;208.77;;
7903;SDS011;3997;48.416;8.512;2023-02-17T08:14:45;510.42;;;483.50;;
7903;SDS011;3997;48.416;8.512;2023-02-17T08:17:11;7.45;;;6.75;;
7903;SDS011;3997;48.416;8.512;2023-02-17T08:19:38;207.80;;;199.25;;
7903;SDS011;3997;48.416;8.512;2023-02-17T08:22:04;271.20;;;257.55;;
7903;SDS011;3997;48.416;8.512;2023-02-17T08:24:31;93.38;;;89.60;;
7903;SDS011;3997;48.416;8.512;2023-02-17T08:26:57;437.20;;;397.23;;
7903;SDS011;3997;48.416;8.512;2023-02-17T08:29:24;33.08;;;31.42;;
7903;SDS011;3997;48.416;8.512;2023-02-17T08:31:52;296.88;;;282.60;;
7903;SDS011;3997;48.416;8.512;2023-02-17T08:34:18;21.50;;;20.17;;
7903;SDS011;3997;48.416;8.512;2023-02-17T08:36:45;318.70;;;302.65;;
7903;SDS011;3997;48.416;8.512;2023-02-17T08:39:13;317.67;;;303.75;;
7903;SDS011;3997;48.416;8.512;2023-02-17T08:41:40;461.30;;;438.83;;
7903;SDS011;3997;48.416;8.512;2023-02-17T08:44:07;303.20;;;288.98;;
7903;SDS011;3997;48.416;8.512;2023-02-17T08:46:34;370.60;;;353.80;;
7903;SDS011;3997;48.416;8.512;2023-02-17T08:49:02;204.77;;;194.70;;
7903;SDS011;3997;48.416;8.512;2023-02-17T08:51:29;348.55;;;333.00;;
7903;SDS011;3997;48.416;8.512;2023-02-17T08:53:56;537.67;;;511.55;;
7903;SDS011;3997;48.416;8.512;2023-02-17T08:56:24;334.40;;;317.33;;
7903;SDS011;3997;48.416;8.512;2023-02-17T08:58:50;328.30;;;306.58;;
7903;SDS011;3997;48.416;8.512;2023-02-17T09:01:17;231.65;;;219.68;;
7903;SDS011;3997;48.416;8.512;2023-02-17T09:03:44;219.43;;;210.00;;
7903;SDS011;3997;48.416;8.512;2023-02-17T09:06:12;374.25;;;338.17;;
7903;SDS011;3997;48.416;8.512;2023-02-17T09:08:40;459.38;;;437.75;;
7903;SDS011;3997;48.416;8.512;2023-02-17T09:11:06;527.58;;;502.58;;
7903;SDS011;3997;48.416;8.512;2023-02-17T09:13:33;391.10;;;371.42;;
7903;SDS011;3997;48.416;8.512;2023-02-17T09:16:00;412.00;;;392.42;;
7903;SDS011;3997;48.416;8.512;2023-02-17T09:18:27;402.67;;;383.90;;
7903;SDS011;3997;48.416;8.512;2023-02-17T09:20:53;482.05;;;458.60;;
7903;SDS011;3997;48.416;8.512;2023-02-17T09:23:21;183.05;;;174.38;;
7903;SDS011;3997;48.416;8.512;2023-02-17T09:25:47;342.08;;;323.60;;
7903;SDS011;3997;48.416;8.512;2023-02-17T09:28:14;460.95;;;430.00;;
7903;SDS011;3997;48.416;8.512;2023-02-17T09:30:40;350.75;;;332.20;;
7903;SDS011;3997;48.416;8.512;2023-02-17T09:33:07;395.48;;;377.10;;
7903;SDS011;3997;48.416;8.512;2023-02-17T09:35:34;560.42;;;513.00;;
7903;SDS011;3997;48.416;8.512;2023-02-17T09:38:02;259.00;;;247.35;;
7903;SDS011;3997;48.416;8.512;2023-02-17T09:40:35;462.33;;;441.58;;
7903;SDS011;3997;48.416;8.512;2023-02-17T09:43:02;370.23;;;354.63;;
7903;SDS011;3997;48.416;8.512;2023-02-17T09:45:31;482.63;;;461.17;;
7903;SDS011;3997;48.416;8.512;2023-02-17T09:48:00;281.45;;;268.52;;
7903;SDS011;3997;48.416;8.512;2023-02-17T09:50:30;278.70;;;266.15;;
7903;SDS011;3997;48.416;8.512;2023-02-17T09:52:59;280.10;;;267.33;;
7903;SDS011;3997;48.416;8.512;2023-02-17T09:55:27;161.75;;;154.90;;
7903;SDS011;3997;48.416;8.512;2023-02-17T09:57:57;521.65;;;497.13;;
7903;SDS011;3997;48.416;8.512;2023-02-17T10:00:24;293.05;;;278.80;;
7903;SDS011;3997;48.416;8.512;2023-02-17T10:02:54;541.70;;;517.00;;
7903;SDS011;3997;48.416;8.512;2023-02-17T10:05:23;485.30;;;460.48;;
7903;SDS011;3997;48.416;8.512;2023-02-17T10:07:52;440.25;;;421.42;;
7903;SDS011;3997;48.416;8.512;2023-02-17T10:10:20;321.63;;;301.17;;
7903;SDS011;3997;48.416;8.512;2023-02-17T10:12:48;621.10;;;584.70;;
7903;SDS011;3997;48.416;8.512;2023-02-17T10:15:18;569.63;;;541.72;;
7903;SDS011;3997;48.416;8.512;2023-02-17T10:17:47;392.40;;;373.77;;
7903;SDS011;3997;48.416;8.512;2023-02-17T10:20:16;500.92;;;473.83;;
7903;SDS011;3997;48.416;8.512;2023-02-17T10:22:45;495.33;;;470.13;;
7903;SDS011;3997;48.416;8.512;2023-02-17T10:25:14;503.92;;;473.50;;
7903;SDS011;3997;48.416;8.512;2023-02-17T10:27:42;500.90;;;477.55;;
7903;SDS011;3997;48.416;8.512;2023-02-17T10:30:14;407.90;;;388.02;;
7903;SDS011;3997;48.416;8.512;2023-02-17T10:32:47;451.15;;;424.80;;
7903;SDS011;3997;48.416;8.512;2023-02-17T10:35:16;522.75;;;497.92;;
7903;SDS011;3997;48.416;8.512;2023-02-17T10:37:46;396.88;;;375.98;;
7903;SDS011;3997;48.416;8.512;2023-02-17T10:40:15;269.00;;;256.55;;
7903;SDS011;3997;48.416;8.512;2023-02-17T10:42:42;391.25;;;372.45;;
7903;SDS011;3997;48.416;8.512;2023-02-17T10:45:09;449.55;;;427.45;;
7903;SDS011;3997;48.416;8.512;2023-02-17T10:47:37;486.48;;;457.30;;
7903;SDS011;3997;48.416;8.512;2023-02-17T10:50:07;381.88;;;363.17;;
7903;SDS011;3997;48.416;8.512;2023-02-17T10:52:39;216.70;;;203.63;;
7903;SDS011;3997;48.416;8.512;2023-02-17T10:55:07;389.80;;;372.25;;
7903;SDS011;3997;48.416;8.512;2023-02-17T10:57:36;515.53;;;490.58;;
7903;SDS011;3997;48.416;8.512;2023-02-17T11:00:03;430.13;;;411.42;;
7903;SDS011;3997;48.416;8.512;2023-02-17T11:02:32;512.40;;;489.80;;
7903;SDS011;3997;48.416;8.512;2023-02-17T11:04:59;270.85;;;258.48;;
7903;SDS011;3997;48.416;8.512;2023-02-17T11:07:30;266.48;;;253.93;;
7903;SDS011;3997;48.416;8.512;2023-02-17T11:09:58;455.58;;;435.58;;
7903;SDS011;3997;48.416;8.512;2023-02-17T11:12:26;588.10;;;559.70;;
7903;SDS011;3997;48.416;8.512;2023-02-17T11:14:54;545.75;;;518.03;;
7903;SDS011;3997;48.416;8.512;2023-02-17T11:17:22;189.02;;;180.13;;
7903;SDS011;3997;48.416;8.512;2023-02-17T11:19:55;360.15;;;343.08;;
7903;SDS011;3997;48.416;8.512;2023-02-17T11:22:26;556.97;;;530.67;;
7903;SDS011;3997;48.416;8.512;2023-02-17T11:24:57;527.20;;;502.48;;
7903;SDS011;3997;48.416;8.512;2023-02-17T11:27:24;125.70;;;119.32;;
7903;SDS011;3997;48.416;8.512;2023-02-17T11:29:51;247.38;;;236.10;;
7903;SDS011;3997;48.416;8.512;2023-02-17T11:32:28;401.55;;;383.35;;
7903;SDS011;3997;48.416;8.512;2023-02-17T11:34:57;471.85;;;448.88;;
7903;SDS011;3997;48.416;8.512;2023-02-17T11:37:25;492.63;;;365.70;;
7903;SDS011;3997;48.416;8.512;2023-02-17T11:39:53;506.40;;;471.52;;
7903;SDS011;3997;48.416;8.512;2023-02-17T11:42:22;151.27;;;144.63;;
7903;SDS011;3997;48.416;8.512;2023-02-17T11:44:49;481.80;;;457.85;;
7903;SDS011;3997;48.416;8.512;2023-02-17T11:47:17;470.27;;;447.77;;
7903;SDS011;3997;48.416;8.512;2023-02-17T11:49:52;361.25;;;343.52;;
7903;SDS011;3997;48.416;8.512;2023-02-17T11:52:24;353.45;;;331.58;;
7903;SDS011;3997;48.416;8.512;2023-02-17T11:54:58;370.73;;;351.13;;
7903;SDS011;3997;48.416;8.512;2023-02-17T11:57:34;396.33;;;376.70;;
7903;SDS011;3997;48.416;8.512;2023-02-17T12:00:08;329.13;;;313.23;;
7903;SDS011;3997;48.416;8.512;2023-02-17T12:02:43;516.03;;;490.15;;
7903;SDS011;3997;48.416;8.512;2023-02-17T12:05:16;510.27;;;483.40;;
7903;SDS011;3997;48.416;8.512;2023-02-17T12:10:30;372.17;;;353.42;;
7903;SDS011;3997;48.416;8.512;2023-02-17T12:13:04;181.98;;;172.95;;
7903;SDS011;3997;48.416;8.512;2023-02-17T12:15:40;458.58;;;437.40;;
7903;SDS011;3997;48.416;8.512;2023-02-17T12:18:14;353.52;;;335.30;;
7903;SDS011;3997;48.416;8.512;2023-02-17T12:20:44;546.72;;;512.92;;
7903;SDS011;3997;48.416;8.512;2023-02-17T12:23:26;633.75;;;602.35;;
7903;SDS011;3997;48.416;8.512;2023-02-17T12:25:58;281.33;;;266.80;;
7903;SDS011;3997;48.416;8.512;2023-02-17T12:28:32;333.90;;;314.48;;
7903;SDS011;3997;48.416;8.512;2023-02-17T12:31:00;617.35;;;576.00;;
7903;SDS011;3997;48.416;8.512;2023-02-17T12:33:35;542.28;;;514.30;;
7903;SDS011;3997;48.416;8.512;2023-02-17T12:36:05;403.15;;;379.30;;
7903;SDS011;3997;48.416;8.512;2023-02-17T12:38:34;662.70;;;630.55;;
7903;SDS011;3997;48.416;8.512;2023-02-17T12:41:03;643.30;;;578.67;;
7903;SDS011;3997;48.416;8.512;2023-02-17T12:43:35;128.32;;;122.32;;
7903;SDS011;3997;48.416;8.512;2023-02-17T12:46:06;555.20;;;527.42;;
7903;SDS011;3997;48.416;8.512;2023-02-17T12:48:34;419.38;;;397.48;;
7903;SDS011;3997;48.416;8.512;2023-02-17T12:51:03;258.05;;;246.43;;
7903;SDS011;3997;48.416;8.512;2023-02-17T12:53:42;415.85;;;394.85;;
7903;SDS011;3997;48.416;8.512;2023-02-17T12:56:22;411.58;;;390.75;;
7903;SDS011;3997;48.416;8.512;2023-02-17T12:58:57;637.33;;;605.53;;
7903;SDS011;3997;48.416;8.512;2023-02-17T13:01:24;951.85;;;869.20;;
7903;SDS011;3997;48.416;8.512;2023-02-17T13:03:51;748.88;;;705.63;;
7903;SDS011;3997;48.416;8.512;2023-02-17T13:06:19;631.58;;;597.40;;
7903;SDS011;3997;48.416;8.512;2023-02-17T13:08:49;322.98;;;307.25;;
7903;SDS011;3997;48.416;8.512;2023-02-17T13:11:24;639.67;;;606.25;;
7903;SDS011;3997;48.416;8.512;2023-02-17T13:13:51;378.88;;;359.48;;
7903;SDS011;3997;48.416;8.512;2023-02-17T13:16:19;366.63;;;348.38;;
7903;SDS011;3997;48.416;8.512;2023-02-17T13:18:46;673.60;;;632.85;;
7903;SDS011;3997;48.416;8.512;2023-02-17T13:21:16;654.83;;;619.78;;
7903;SDS011;3997;48.416;8.512;2023-02-17T13:23:55;594.22;;;564.28;;
7903;SDS011;3997;48.416;8.512;2023-02-17T13:26:26;571.95;;;537.85;;
7903;SDS011;3997;48.416;8.512;2023-02-17T13:28:54;523.28;;;496.80;;
7903;SDS011;3997;48.416;8.512;2023-02-17T13:31:42;585.95;;;557.17;;
7903;SDS011;3997;48.416;8.512;2023-02-17T13:34:08;204.02;;;194.65;;
7903;SDS011;3997;48.416;8.512;2023-02-17T13:36:36;599.55;;;569.33;;
7903;SDS011;3997;48.416;8.512;2023-02-17T13:39:03;562.88;;;535.90;;
7903;SDS011;3997;48.416;8.512;2023-02-17T13:41:33;442.83;;;423.88;;
7903;SDS011;3997;48.416;8.512;2023-02-17T13:46:55;557.40;;;531.33;;
7903;SDS011;3997;48.416;8.512;2023-02-17T13:49:23;536.58;;;512.40;;
7903;SDS011;3997;48.416;8.512;2023-02-17T13:51:51;564.00;;;535.60;;
7903;SDS011;3997;48.416;8.512;2023-02-17T13:54:18;669.45;;;632.88;;
7903;SDS011;3997;48.416;8.512;2023-02-17T13:56:48;327.80;;;311.55;;
7903;SDS011;3997;48.416;8.512;2023-02-17T13:59:16;476.70;;;453.73;;
7903;SDS011;3997;48.416;8.512;2023-02-17T14:01:43;548.38;;;522.97;;
7903;SDS011;3997;48.416;8.512;2023-02-17T14:04:18;497.98;;;472.30;;
7903;SDS011;3997;48.416;8.512;2023-02-17T14:06:46;472.10;;;452.02;;
7903;SDS011;3997;48.416;8.512;2023-02-17T14:11:46;538.80;;;515.47;;
7903;SDS011;3997;48.416;8.512;2023-02-17T14:14:12;537.50;;;513.42;;
7903;SDS011;3997;48.416;8.512;2023-02-17T14:16:40;469.08;;;447.65;;
7903;SDS011;3997;48.416;8.512;2023-02-17T14:19:08;647.97;;;612.88;;
7903;SDS011;3997;48.416;8.512;2023-02-17T14:21:37;280.67;;;268.35;;
7903;SDS011;3997;48.416;8.512;2023-02-17T14:24:04;622.03;;;591.17;;
7903;SDS011;3997;48.416;8.512;2023-02-17T14:26:31;600.10;;;571.53;;
7903;SDS011;3997;48.416;8.512;2023-02-17T14:29:00;573.55;;;545.70;;
7903;SDS011;3997;48.416;8.512;2023-02-17T14:31:27;591.83;;;559.67;;
7903;SDS011;3997;48.416;8.512;2023-02-17T14:33:54;571.13;;;541.50;;
7903;SDS011;3997;48.416;8.512;2023-02-17T14:36:25;277.33;;;264.73;;
7903;SDS011;3997;48.416;8.512;2023-02-17T14:38:55;495.83;;;471.52;;
7903;SDS011;3997;48.416;8.512;2023-02-17T14:41:21;491.88;;;467.83;;